sensor_id;sensor_type;location;lat;lon;timestamp;pressure;altitude;pressure_sealevel;temperature;humidity
12051;BME280;6086;43.546;26.474;2022-09-09T00:00:48;99300.19;;;18.22;100.00
12051;BME280;6086;43.546;26.474;2022-09-09T00:03:18;99298.00;;;18.19;100.00
12051;BME280;6086;43.546;26.474;2022-09-09T00:05:53;99305.63;;;18.22;100.00
12051;BME280;6086;43.546;26.474;2022-09-09T00:08:31;99303.97;;;18.21;100.00
12051;BME280;6086;43.546;26.474;2022-09-09T00:11:05;99304.47;;;18.18;100.00
12051;BME280;6086;43.546;26.474;2022-09-09T00:13:37;99302.09;;;18.22;100.00
12051;BME280;6086;43.546;26.474;2022-09-09T00:16:13;99300.13;;;18.17;100.00
12051;BME280;6086;43.546;26.474;2022-09-09T00:18:52;99279.19;;;18.13;100.00
12051;BME280;6086;43.546;26.474;2022-09-09T00:21:24;99284.09;;;18.16;100.00
12051;BME280;6086;43.546;26.474;2022-09-09T00:23:54;99291.91;;;18.12;100.00
12051;BME280;6086;43.546;26.474;2022-09-09T00:26:27;99283.69;;;18.07;100.00
12051;BME280;6086;43.546;26.474;2022-09-09T00:29:05;99287.22;;;18.08;100.00
12051;BME280;6086;43.546;26.474;2022-09-09T00:31:36;99282.47;;;17.98;100.00
12051;BME280;6086;43.546;26.474;2022-09-09T00:34:09;99288.44;;;18.00;100.00
12051;BME280;6086;43.546;26.474;2022-09-09T00:36:38;99291.91;;;17.96;100.00
12051;BME280;6086;43.546;26.474;2022-09-09T00:39:10;99296.16;;;17.92;100.00
12051;BME280;6086;43.546;26.474;2022-09-09T00:41:50;99298.84;;;17.92;100.00
12051;BME280;6086;43.546;26.474;2022-09-09T00:44:30;99299.00;;;17.85;100.00
12051;BME280;6086;43.546;26.474;2022-09-09T00:47:12;99290.56;;;17.82;100.00
12051;BME280;6086;43.546;26.474;2022-09-09T00:49:52;99279.88;;;17.75;100.00
12051;BME280;6086;43.546;26.474;2022-09-09T00:52:32;99279.88;;;17.75;100.00
12051;BME280;6086;43.546;26.474;2022-09-09T00:58:21;99284.38;;;17.70;100.00
12051;BME280;6086;43.546;26.474;2022-09-09T01:00:52;99287.09;;;17.70;100.00
12051;BME280;6086;43.546;26.474;2022-09-09T01:03:29;99288.16;;;17.69;100.00
12051;BME280;6086;43.546;26.474;2022-09-09T01:06:02;99285.78;;;17.72;100.00
12051;BME280;6086;43.546;26.474;2022-09-09T01:11:36;99286.97;;;17.65;100.00
12051;BME280;6086;43.546;26.474;2022-09-09T01:14:13;99289.69;;;17.65;100.00
12051;BME280;6086;43.546;26.474;2022-09-09T01:16:45;99293.69;;;17.62;100.00
12051;BME280;6086;43.546;26.474;2022-09-09T01:19:19;99294.31;;;17.64;100.00
12051;BME280;6086;43.546;26.474;2022-09-09T01:21:58;99286.41;;;17.63;100.00
12051;BME280;6086;43.546;26.474;2022-09-09T01:25:01;99285.50;;;17.57;100.00
12051;BME280;6086;43.546;26.474;2022-09-09T01:27:34;99280.31;;;17.56;100.00
12051;BME280;6086;43.546;26.474;2022-09-09T01:30:05;99282.69;;;17.52;100.00
12051;BME280;6086;43.546;26.474;2022-09-09T01:32:41;99271.78;;;17.47;100.00
12051;BME280;6086;43.546;26.474;2022-09-09T01:35:11;99276.13;;;17.48;100.00
12051;BME280;6086;43.546;26.474;2022-09-09T01:37:39;99281.78;;;17.47;100.00
12051;BME280;6086;43.546;26.474;2022-09-09T01:40:07;99284.47;;;17.47;100.00
12051;BME280;6086;43.546;26.474;2022-09-09T01:42:36;99283.91;;;17.45;100.00
12051;BME280;6086;43.546;26.474;2022-09-09T01:45:04;99278.16;;;17.41;100.00
12051;BME280;6086;43.546;26.474;2022-09-09T01:47:32;99276.16;;;17.37;100.00
12051;BME280;6086;43.546;26.474;2022-09-09T01:49:59;99284.06;;;17.38;100.00
12051;BME280;6086;43.546;26.474;2022-09-09T01:52:27;99285.13;;;17.37;100.00
12051;BME280;6086;43.546;26.474;2022-09-09T01:54:54;99280.41;;;17.33;100.00
12051;BME280;6086;43.546;26.474;2022-09-09T01:57:24;99274.97;;;17.33;100.00
12051;BME280;6086;43.546;26.474;2022-09-09T02:00:01;99275.09;;;17.26;100.00
12051;BME280;6086;43.546;26.474;2022-09-09T02:02:35;99276.50;;;17.29;100.00
12051;BME280;6086;43.546;26.474;2022-09-09T02:05:11;99282.41;;;17.26;100.00
12051;BME280;6086;43.546;26.474;2022-09-09T02:07:47;99276.31;;;17.19;100.00
12051;BME280;6086;43.546;26.474;2022-09-09T02:10:17;99270.56;;;17.15;100.00
12051;BME280;6086;43.546;26.474;2022-09-09T02:12:49;99268.34;;;17.12;100.00
12051;BME280;6086;43.546;26.474;2022-09-09T02:15:22;99273.19;;;17.10;100.00
12051;BME280;6086;43.546;26.474;2022-09-09T02:17:52;99261.16;;;17.06;100.00
12051;BME280;6086;43.546;26.474;2022-09-09T02:20:20;99270.34;;;17.05;100.00
12051;BME280;6086;43.546;26.474;2022-09-09T02:22:50;99271.41;;;17.04;100.00
12051;BME280;6086;43.546;26.474;2022-09-09T02:25:19;99267.66;;;17.05;100.00
12051;BME280;6086;43.546;26.474;2022-09-09T02:27:50;99269.06;;;17.08;100.00
12051;BME280;6086;43.546;26.474;2022-09-09T02:30:19;99256.59;;;17.07;100.00
12051;BME280;6086;43.546;26.474;2022-09-09T02:32:48;99262.59;;;17.09;100.00
12051;BME280;6086;43.546;26.474;2022-09-09T02:35:19;99261.41;;;17.05;100.00
12051;BME280;6086;43.546;26.474;2022-09-09T02:37:48;99251.91;;;17.02;100.00
12051;BME280;6086;43.546;26.474;2022-09-09T02:40:17;99265.09;;;16.99;100.00
12051;BME280;6086;43.546;26.474;2022-09-09T02:42:45;99264.50;;;16.97;100.00
12051;BME280;6086;43.546;26.474;2022-09-09T02:45:15;99264.81;;;17.00;100.00
12051;BME280;6086;43.546;26.474;2022-09-09T02:47:49;99263.31;;;17.04;100.00
12051;BME280;6086;43.546;26.474;2022-09-09T02:50:22;99258.69;;;17.05;100.00
12051;BME280;6086;43.546;26.474;2022-09-09T02:53:01;99253.88;;;17.07;100.00
12051;BME280;6086;43.546;26.474;2022-09-09T02:55:38;99257.66;;;17.06;100.00
12051;BME280;6086;43.546;26.474;2022-09-09T02:58:09;99265.44;;;17.02;100.00
12051;BME280;6086;43.546;26.474;2022-09-09T03:00:39;99265.09;;;16.99;100.00
12051;BME280;6086;43.546;26.474;2022-09-09T03:03:08;99257.69;;;16.94;100.00
12051;BME280;6086;43.546;26.474;2022-09-09T03:05:42;99255.22;;;16.93;100.00
12051;BME280;6086;43.546;26.474;2022-09-09T03:08:09;99257.09;;;16.92;100.00
12051;BME280;6086;43.546;26.474;2022-09-09T03:10:36;99253.78;;;16.90;100.00
12051;BME280;6086;43.546;26.474;2022-09-09T03:13:03;99251.44;;;16.94;100.00
12051;BME280;6086;43.546;26.474;2022-09-09T03:15:31;99252.72;;;16.91;100.00
12051;BME280;6086;43.546;26.474;2022-09-09T03:17:58;99250.88;;;16.92;100.00
12051;BME280;6086;43.546;26.474;2022-09-09T03:20:28;99248.66;;;16.89;100.00
12051;BME280;6086;43.546;26.474;2022-09-09T03:22:56;99250.50;;;16.88;100.00
12051;BME280;6086;43.546;26.474;2022-09-09T03:25:24;99263.47;;;16.86;100.00
12051;BME280;6086;43.546;26.474;2022-09-09T03:27:51;99247.47;;;16.85;100.00
12051;BME280;6086;43.546;26.474;2022-09-09T03:30:20;99249.59;;;16.83;100.00
12051;BME280;6086;43.546;26.474;2022-09-09T03:32:46;99252.88;;;16.85;100.00
12051;BME280;6086;43.546;26.474;2022-09-09T03:35:14;99253.44;;;16.87;100.00
12051;BME280;6086;43.546;26.474;2022-09-09T03:37:43;99247.94;;;16.82;100.00
12051;BME280;6086;43.546;26.474;2022-09-09T03:40:10;99251.81;;;16.86;100.00
12051;BME280;6086;43.546;26.474;2022-09-09T03:42:38;99249.94;;;16.86;100.00
12051;BME280;6086;43.546;26.474;2022-09-09T03:45:07;99249.00;;;16.81;100.00
12051;BME280;6086;43.546;26.474;2022-09-09T03:47:35;99256.63;;;16.84;100.00
12051;BME280;6086;43.546;26.474;2022-09-09T03:50:02;99246.66;;;16.84;100.00
12051;BME280;6086;43.546;26.474;2022-09-09T03:52:34;99257.69;;;16.83;100.00
12051;BME280;6086;43.546;26.474;2022-09-09T03:55:04;99254.28;;;16.87;100.00
12051;BME280;6086;43.546;26.474;2022-09-09T03:57:31;99264.25;;;16.87;100.00
12051;BME280;6086;43.546;26.474;2022-09-09T04:00:01;99269.78;;;16.92;100.00
12051;BME280;6086;43.546;26.474;2022-09-09T04:02:28;99271.44;;;16.93;100.00
12051;BME280;6086;43.546;26.474;2022-09-09T04:04:55;99263.44;;;16.98;100.00
12051;BME280;6086;43.546;26.474;2022-09-09T04:07:22;99259.09;;;16.97;100.00
12051;BME280;6086;43.546;26.474;2022-09-09T04:09:49;99267.06;;;17.03;100.00
12051;BME280;6086;43.546;26.474;2022-09-09T04:12:17;99266.34;;;17.08;100.00
12051;BME280;6086;43.546;26.474;2022-09-09T04:14:44;99267.47;;;17.23;100.00
12051;BME280;6086;43.546;26.474;2022-09-09T04:17:11;99275.06;;;17.49;100.00
12051;BME280;6086;43.546;26.474;2022-09-09T04:19:38;99278.31;;;17.79;100.00
12051;BME280;6086;43.546;26.474;2022-09-09T04:22:05;99285.06;;;18.10;100.00
12051;BME280;6086;43.546;26.474;2022-09-09T04:24:32;99278.47;;;18.34;100.00
12051;BME280;6086;43.546;26.474;2022-09-09T04:27:00;99271.13;;;18.51;100.00
12051;BME280;6086;43.546;26.474;2022-09-09T04:29:29;99276.09;;;18.75;100.00
12051;BME280;6086;43.546;26.474;2022-09-09T04:31:55;99283.94;;;18.93;100.00
12051;BME280;6086;43.546;26.474;2022-09-09T04:34:22;99278.19;;;19.11;100.00
12051;BME280;6086;43.546;26.474;2022-09-09T04:36:50;99275.94;;;19.24;100.00
12051;BME280;6086;43.546;26.474;2022-09-09T04:39:17;99275.56;;;19.37;100.00
12051;BME280;6086;43.546;26.474;2022-09-09T04:41:45;99278.16;;;19.49;100.00
12051;BME280;6086;43.546;26.474;2022-09-09T04:44:12;99276.66;;;19.63;100.00
12051;BME280;6086;43.546;26.474;2022-09-09T04:46:40;99268.97;;;19.81;100.00
12051;BME280;6086;43.546;26.474;2022-09-09T04:49:07;99271.53;;;19.93;100.00
12051;BME280;6086;43.546;26.474;2022-09-09T04:51:34;99279.06;;;20.12;100.00
12051;BME280;6086;43.546;26.474;2022-09-09T04:54:01;99267.50;;;20.27;100.00
12051;BME280;6086;43.546;26.474;2022-09-09T04:56:28;99272.25;;;20.41;100.00
12051;BME280;6086;43.546;26.474;2022-09-09T04:58:55;99270.69;;;20.55;100.00
12051;BME280;6086;43.546;26.474;2022-09-09T05:01:22;99268.88;;;20.66;100.00
12051;BME280;6086;43.546;26.474;2022-09-09T05:03:51;99273.03;;;20.78;100.00
12051;BME280;6086;43.546;26.474;2022-09-09T05:06:20;99269.00;;;20.86;100.00
12051;BME280;6086;43.546;26.474;2022-09-09T05:08:47;99268.75;;;20.92;99.65
12051;BME280;6086;43.546;26.474;2022-09-09T05:11:19;99268.47;;;20.89;99.02
12051;BME280;6086;43.546;26.474;2022-09-09T05:13:47;99268.38;;;20.74;100.00
12051;BME280;6086;43.546;26.474;2022-09-09T05:16:16;99263.72;;;20.69;100.00
12051;BME280;6086;43.546;26.474;2022-09-09T05:18:43;99262.03;;;20.58;100.00
12051;BME280;6086;43.546;26.474;2022-09-09T05:21:14;99267.19;;;20.55;100.00
12051;BME280;6086;43.546;26.474;2022-09-09T05:23:41;99271.19;;;20.47;100.00
12051;BME280;6086;43.546;26.474;2022-09-09T05:26:12;99267.97;;;20.50;100.00
12051;BME280;6086;43.546;26.474;2022-09-09T05:28:39;99270.69;;;20.55;100.00
12051;BME280;6086;43.546;26.474;2022-09-09T05:31:08;99267.97;;;20.55;100.00
12051;BME280;6086;43.546;26.474;2022-09-09T05:33:37;99272.09;;;20.58;100.00
12051;BME280;6086;43.546;26.474;2022-09-09T05:36:07;99269.41;;;20.68;100.00
12051;BME280;6086;43.546;26.474;2022-09-09T05:38:37;99262.66;;;20.75;100.00
12051;BME280;6086;43.546;26.474;2022-09-09T05:41:04;99255.34;;;20.81;100.00
12051;BME280;6086;43.546;26.474;2022-09-09T05:43:31;99255.94;;;20.88;100.00
12051;BME280;6086;43.546;26.474;2022-09-09T05:46:03;99259.81;;;20.97;100.00
12051;BME280;6086;43.546;26.474;2022-09-09T05:48:31;99261.47;;;21.03;100.00
12051;BME280;6086;43.546;26.474;2022-09-09T05:50:59;99269.97;;;21.16;99.35
12051;BME280;6086;43.546;26.474;2022-09-09T05:53:27;99267.00;;;21.23;96.75
12051;BME280;6086;43.546;26.474;2022-09-09T05:56:02;99266.81;;;21.39;95.85
12051;BME280;6086;43.546;26.474;2022-09-09T05:58:30;99276.34;;;21.47;94.05
12051;BME280;6086;43.546;26.474;2022-09-09T06:01:02;99283.75;;;21.61;93.11
12051;BME280;6086;43.546;26.474;2022-09-09T06:03:29;99273.72;;;21.72;93.25
12051;BME280;6086;43.546;26.474;2022-09-09T06:06:00;99259.84;;;21.83;91.78
12051;BME280;6086;43.546;26.474;2022-09-09T06:08:30;99253.84;;;21.96;91.00
12051;BME280;6086;43.546;26.474;2022-09-09T06:11:02;99249.22;;;22.12;89.93
12051;BME280;6086;43.546;26.474;2022-09-09T06:13:29;99250.31;;;22.20;87.79
12051;BME280;6086;43.546;26.474;2022-09-09T06:15:57;99254.97;;;22.35;85.36
12051;BME280;6086;43.546;26.474;2022-09-09T06:18:24;99257.97;;;22.48;84.42
12051;BME280;6086;43.546;26.474;2022-09-09T06:20:56;99252.50;;;22.58;83.93
12051;BME280;6086;43.546;26.474;2022-09-09T06:23:24;99257.38;;;22.71;83.40
12051;BME280;6086;43.546;26.474;2022-09-09T06:25:51;99258.97;;;22.82;84.18
12051;BME280;6086;43.546;26.474;2022-09-09T06:28:19;99256.75;;;22.99;82.04
12051;BME280;6086;43.546;26.474;2022-09-09T06:30:46;99242.50;;;23.12;80.05
12051;BME280;6086;43.546;26.474;2022-09-09T06:33:13;99243.59;;;23.21;79.15
12051;BME280;6086;43.546;26.474;2022-09-09T06:35:40;99255.81;;;23.34;77.29
12051;BME280;6086;43.546;26.474;2022-09-09T06:38:07;99254.41;;;23.46;76.58
12051;BME280;6086;43.546;26.474;2022-09-09T06:40:34;99255.97;;;23.57;77.02
12051;BME280;6086;43.546;26.474;2022-09-09T06:43:02;99267.09;;;23.71;75.37
12051;BME280;6086;43.546;26.474;2022-09-09T06:45:54;99256.41;;;23.74;75.19
12051;BME280;6086;43.546;26.474;2022-09-09T06:48:21;99258.81;;;23.81;74.59
12051;BME280;6086;43.546;26.474;2022-09-09T06:50:49;99256.31;;;23.94;74.55
12051;BME280;6086;43.546;26.474;2022-09-09T06:53:17;99245.34;;;23.99;74.98
12051;BME280;6086;43.546;26.474;2022-09-09T06:55:46;99247.38;;;24.17;73.24
12051;BME280;6086;43.546;26.474;2022-09-09T06:58:13;99253.78;;;24.36;73.14
12051;BME280;6086;43.546;26.474;2022-09-09T07:00:40;99252.84;;;24.46;72.64
12051;BME280;6086;43.546;26.474;2022-09-09T07:03:09;99250.06;;;24.51;70.91
12051;BME280;6086;43.546;26.474;2022-09-09T07:05:36;99252.22;;;24.59;69.93
12051;BME280;6086;43.546;26.474;2022-09-09T07:08:04;99258.34;;;24.74;67.63
12051;BME280;6086;43.546;26.474;2022-09-09T07:10:30;99256.91;;;24.82;67.35
12051;BME280;6086;43.546;26.474;2022-09-09T07:12:59;99266.59;;;24.98;67.90
12051;BME280;6086;43.546;26.474;2022-09-09T07:15:27;99257.72;;;25.06;64.35
12051;BME280;6086;43.546;26.474;2022-09-09T07:18:00;99266.31;;;25.23;64.37
12051;BME280;6086;43.546;26.474;2022-09-09T07:20:29;99259.91;;;25.32;62.21
12051;BME280;6086;43.546;26.474;2022-09-09T07:22:56;99266.22;;;25.51;62.52
12051;BME280;6086;43.546;26.474;2022-09-09T07:25:24;99267.94;;;25.66;62.07
12051;BME280;6086;43.546;26.474;2022-09-09T07:27:52;99256.53;;;25.77;60.86
12051;BME280;6086;43.546;26.474;2022-09-09T07:30:19;99266.00;;;25.89;59.47
12051;BME280;6086;43.546;26.474;2022-09-09T07:32:47;99259.22;;;26.00;58.63
12051;BME280;6086;43.546;26.474;2022-09-09T07:35:15;99257.44;;;26.09;56.64
12051;BME280;6086;43.546;26.474;2022-09-09T07:37:45;99253.94;;;26.22;57.13
12051;BME280;6086;43.546;26.474;2022-09-09T07:40:12;99254.97;;;26.26;55.92
12051;BME280;6086;43.546;26.474;2022-09-09T07:42:40;99258.13;;;26.33;56.15
12051;BME280;6086;43.546;26.474;2022-09-09T07:45:07;99254.94;;;26.45;56.71
12051;BME280;6086;43.546;26.474;2022-09-09T07:47:34;99246.69;;;26.45;56.44
12051;BME280;6086;43.546;26.474;2022-09-09T07:50:02;99246.53;;;26.55;55.51
12051;BME280;6086;43.546;26.474;2022-09-09T07:52:29;99245.84;;;26.63;56.59
12051;BME280;6086;43.546;26.474;2022-09-09T07:54:57;99249.41;;;26.77;54.77
12051;BME280;6086;43.546;26.474;2022-09-09T07:57:25;99243.09;;;26.76;56.41
12051;BME280;6086;43.546;26.474;2022-09-09T07:59:52;99230.78;;;26.87;56.19
12051;BME280;6086;43.546;26.474;2022-09-09T08:02:19;99234.66;;;27.00;53.62
12051;BME280;6086;43.546;26.474;2022-09-09T08:04:46;99234.69;;;27.13;54.06
12051;BME280;6086;43.546;26.474;2022-09-09T08:07:14;99224.81;;;27.26;52.67
12051;BME280;6086;43.546;26.474;2022-09-09T08:09:41;99230.72;;;27.33;52.87
12051;BME280;6086;43.546;26.474;2022-09-09T08:12:10;99224.66;;;27.44;50.84
12051;BME280;6086;43.546;26.474;2022-09-09T08:14:44;99242.06;;;27.53;49.88
12051;BME280;6086;43.546;26.474;2022-09-09T08:17:11;99242.16;;;27.62;50.43
12051;BME280;6086;43.546;26.474;2022-09-09T08:19:38;99247.94;;;27.74;51.02
12051;BME280;6086;43.546;26.474;2022-09-09T08:22:05;99250.19;;;27.85;50.92
12051;BME280;6086;43.546;26.474;2022-09-09T08:24:33;99249.56;;;27.88;48.26
12051;BME280;6086;43.546;26.474;2022-09-09T08:26:59;99243.31;;;27.96;48.80
12051;BME280;6086;43.546;26.474;2022-09-09T08:29:28;99250.19;;;28.07;47.74
12051;BME280;6086;43.546;26.474;2022-09-09T08:31:56;99247.34;;;28.12;47.59
12051;BME280;6086;43.546;26.474;2022-09-09T08:34:24;99252.84;;;28.12;47.07
12051;BME280;6086;43.546;26.474;2022-09-09T08:36:52;99241.38;;;28.19;48.01
12051;BME280;6086;43.546;26.474;2022-09-09T08:39:21;99239.19;;;28.29;46.79
12051;BME280;6086;43.546;26.474;2022-09-09T08:45:03;99241.72;;;28.39;47.86
12051;BME280;6086;43.546;26.474;2022-09-09T08:47:45;99241.94;;;28.51;45.03
12051;BME280;6086;43.546;26.474;2022-09-09T08:50:21;99227.28;;;28.64;47.28
12051;BME280;6086;43.546;26.474;2022-09-09T08:52:54;99222.13;;;28.71;46.72
12051;BME280;6086;43.546;26.474;2022-09-09T08:55:27;99221.00;;;28.72;44.80
12051;BME280;6086;43.546;26.474;2022-09-09T08:57:58;99217.59;;;28.75;45.39
12051;BME280;6086;43.546;26.474;2022-09-09T09:00:36;99208.56;;;28.83;45.06
12051;BME280;6086;43.546;26.474;2022-09-09T09:03:11;99208.59;;;28.92;44.46
12051;BME280;6086;43.546;26.474;2022-09-09T09:05:47;99202.16;;;28.96;44.92
12051;BME280;6086;43.546;26.474;2022-09-09T09:08:25;99193.41;;;29.03;44.61
12051;BME280;6086;43.546;26.474;2022-09-09T09:10:56;99202.03;;;29.10;44.16
12051;BME280;6086;43.546;26.474;2022-09-09T09:13:31;99186.63;;;29.17;43.33
12051;BME280;6086;43.546;26.474;2022-09-09T09:16:13;99195.91;;;29.30;45.00
12051;BME280;6086;43.546;26.474;2022-09-09T09:18:44;99191.06;;;29.43;44.24
12051;BME280;6086;43.546;26.474;2022-09-09T09:21:13;99190.09;;;29.39;43.40
12051;BME280;6086;43.546;26.474;2022-09-09T09:23:50;99185.22;;;29.37;43.72
12051;BME280;6086;43.546;26.474;2022-09-09T09:26:21;99179.09;;;29.56;45.06
12051;BME280;6086;43.546;26.474;2022-09-09T09:28:50;99177.28;;;29.60;45.46
12051;BME280;6086;43.546;26.474;2022-09-09T09:31:24;99172.28;;;29.62;44.13
12051;BME280;6086;43.546;26.474;2022-09-09T09:33:53;99170.81;;;29.73;42.34
12051;BME280;6086;43.546;26.474;2022-09-09T09:37:20;99176.66;;;29.72;41.15
12051;BME280;6086;43.546;26.474;2022-09-09T09:39:53;99178.63;;;29.71;41.75
12051;BME280;6086;43.546;26.474;2022-09-09T09:42:20;99184.63;;;29.90;42.86
12051;BME280;6086;43.546;26.474;2022-09-09T09:44:47;99187.72;;;29.97;42.09
12051;BME280;6086;43.546;26.474;2022-09-09T09:47:18;99179.28;;;30.11;41.34
12051;BME280;6086;43.546;26.474;2022-09-09T09:49:52;99170.47;;;30.09;40.09
12051;BME280;6086;43.546;26.474;2022-09-09T09:52:23;99172.25;;;30.05;40.34
12051;BME280;6086;43.546;26.474;2022-09-09T09:55:11;99173.41;;;30.04;41.33
12051;BME280;6086;43.546;26.474;2022-09-09T09:57:39;99174.53;;;30.20;40.99
12051;BME280;6086;43.546;26.474;2022-09-09T10:00:13;99172.56;;;30.29;41.36
12051;BME280;6086;43.546;26.474;2022-09-09T10:02:45;99175.94;;;30.43;40.97
12051;BME280;6086;43.546;26.474;2022-09-09T10:05:15;99181.47;;;30.43;40.12
12051;BME280;6086;43.546;26.474;2022-09-09T10:07:42;99188.75;;;30.47;42.81
12051;BME280;6086;43.546;26.474;2022-09-09T10:10:15;99177.59;;;30.35;40.78
12051;BME280;6086;43.546;26.474;2022-09-09T10:12:52;99170.53;;;30.55;40.55
12051;BME280;6086;43.546;26.474;2022-09-09T10:15:38;99166.13;;;30.54;40.64
12051;BME280;6086;43.546;26.474;2022-09-09T10:18:22;99178.47;;;30.73;41.41
12051;BME280;6086;43.546;26.474;2022-09-09T10:21:09;99167.38;;;30.82;40.46
12051;BME280;6086;43.546;26.474;2022-09-09T10:23:58;99170.28;;;30.85;39.34
12051;BME280;6086;43.546;26.474;2022-09-09T10:26:38;99166.16;;;30.91;40.22
12051;BME280;6086;43.546;26.474;2022-09-09T10:29:22;99170.84;;;30.99;39.22
12051;BME280;6086;43.546;26.474;2022-09-09T10:32:02;99166.91;;;31.09;40.91
12051;BME280;6086;43.546;26.474;2022-09-09T10:34:51;99159.25;;;31.06;40.79
12051;BME280;6086;43.546;26.474;2022-09-09T10:37:33;99156.31;;;31.11;41.05
12051;BME280;6086;43.546;26.474;2022-09-09T10:40:08;99153.03;;;31.17;39.98
12051;BME280;6086;43.546;26.474;2022-09-09T10:42:42;99149.06;;;31.27;40.40
12051;BME280;6086;43.546;26.474;2022-09-09T10:45:17;99152.84;;;31.22;41.20
12051;BME280;6086;43.546;26.474;2022-09-09T10:48:00;99144.09;;;31.20;40.25
12051;BME280;6086;43.546;26.474;2022-09-09T10:50:43;99147.31;;;31.22;40.37
12051;BME280;6086;43.546;26.474;2022-09-09T10:53:21;99153.13;;;31.29;40.00
12051;BME280;6086;43.546;26.474;2022-09-09T10:55:52;99143.47;;;31.35;40.86
12051;BME280;6086;43.546;26.474;2022-09-09T10:58:23;99146.44;;;31.30;40.31
12051;BME280;6086;43.546;26.474;2022-09-09T11:00:55;99146.44;;;31.30;40.44
12051;BME280;6086;43.546;26.474;2022-09-09T11:03:26;99151.22;;;31.21;39.85
12051;BME280;6086;43.546;26.474;2022-09-09T11:06:01;99149.25;;;31.22;40.13
12051;BME280;6086;43.546;26.474;2022-09-09T11:08:34;99154.94;;;31.25;40.17
12051;BME280;6086;43.546;26.474;2022-09-09T11:11:03;99146.97;;;31.24;40.09
12051;BME280;6086;43.546;26.474;2022-09-09T11:13:38;99136.88;;;30.90;41.04
12051;BME280;6086;43.546;26.474;2022-09-09T11:16:19;99124.72;;;31.12;39.32
12051;BME280;6086;43.546;26.474;2022-09-09T11:18:48;99137.31;;;31.30;39.74
12051;BME280;6086;43.546;26.474;2022-09-09T11:21:21;99139.75;;;31.31;39.12
12051;BME280;6086;43.546;26.474;2022-09-09T11:23:50;99127.00;;;31.39;40.11
12051;BME280;6086;43.546;26.474;2022-09-09T11:26:28;99133.97;;;31.45;39.00
12051;BME280;6086;43.546;26.474;2022-09-09T11:29:09;99131.75;;;31.38;39.16
12051;BME280;6086;43.546;26.474;2022-09-09T11:31:45;99124.97;;;31.27;38.38
12051;BME280;6086;43.546;26.474;2022-09-09T11:34:22;99123.34;;;31.26;38.89
12051;BME280;6086;43.546;26.474;2022-09-09T11:37:07;99124.31;;;31.30;39.07
12051;BME280;6086;43.546;26.474;2022-09-09T11:40:08;99129.47;;;31.32;39.47
12051;BME280;6086;43.546;26.474;2022-09-09T11:42:36;99127.53;;;31.32;38.71
12051;BME280;6086;43.546;26.474;2022-09-09T11:45:11;99127.97;;;31.43;39.27
12051;BME280;6086;43.546;26.474;2022-09-09T11:47:38;99126.44;;;31.45;39.03
12051;BME280;6086;43.546;26.474;2022-09-09T11:50:09;99121.72;;;31.46;39.91
12051;BME280;6086;43.546;26.474;2022-09-09T11:52:40;99115.91;;;31.39;39.19
12051;BME280;6086;43.546;26.474;2022-09-09T11:55:23;99119.09;;;31.49;39.94
12051;BME280;6086;43.546;26.474;2022-09-09T11:57:57;99114.63;;;31.57;39.82
12051;BME280;6086;43.546;26.474;2022-09-09T12:00:33;99113.00;;;31.56;39.33
12051;BME280;6086;43.546;26.474;2022-09-09T12:03:01;99112.91;;;31.64;39.66
12051;BME280;6086;43.546;26.474;2022-09-09T12:05:39;99122.34;;;31.72;40.48
12051;BME280;6086;43.546;26.474;2022-09-09T12:08:37;99113.41;;;31.25;40.38
12051;BME280;6086;43.546;26.474;2022-09-09T12:11:23;99103.09;;;31.55;39.96
12051;BME280;6086;43.546;26.474;2022-09-09T12:13:58;99097.47;;;31.63;39.89
12051;BME280;6086;43.546;26.474;2022-09-09T12:16:40;99092.50;;;31.89;40.02
12051;BME280;6086;43.546;26.474;2022-09-09T12:22:11;99087.22;;;31.96;39.50
12051;BME280;6086;43.546;26.474;2022-09-09T12:24:49;99098.88;;;31.90;39.52
12051;BME280;6086;43.546;26.474;2022-09-09T12:27:24;99083.59;;;31.84;39.63
12051;BME280;6086;43.546;26.474;2022-09-09T12:30:28;99076.31;;;31.79;38.73
12051;BME280;6086;43.546;26.474;2022-09-09T12:33:11;99074.84;;;31.61;38.84
12051;BME280;6086;43.546;26.474;2022-09-09T12:35:49;99076.31;;;31.59;39.73
12051;BME280;6086;43.546;26.474;2022-09-09T12:38:31;99075.13;;;31.48;38.97
12051;BME280;6086;43.546;26.474;2022-09-09T12:41:34;99083.16;;;31.41;39.98
12051;BME280;6086;43.546;26.474;2022-09-09T12:44:15;99068.47;;;30.99;40.19
12051;BME280;6086;43.546;26.474;2022-09-09T12:46:47;99061.06;;;31.12;40.81
12051;BME280;6086;43.546;26.474;2022-09-09T12:49:35;99067.44;;;31.12;40.22
12051;BME280;6086;43.546;26.474;2022-09-09T12:52:16;99065.94;;;31.15;40.65
12051;BME280;6086;43.546;26.474;2022-09-09T12:55:15;99056.53;;;31.07;40.32
12051;BME280;6086;43.546;26.474;2022-09-09T12:57:44;99051.84;;;31.08;40.83
12051;BME280;6086;43.546;26.474;2022-09-09T13:00:15;99050.63;;;31.17;42.65
12051;BME280;6086;43.546;26.474;2022-09-09T13:02:48;99042.47;;;31.21;40.28
12051;BME280;6086;43.546;26.474;2022-09-09T13:05:20;99042.41;;;31.29;40.69
12051;BME280;6086;43.546;26.474;2022-09-09T13:08:01;99048.88;;;31.33;41.36
12051;BME280;6086;43.546;26.474;2022-09-09T13:13:42;99030.19;;;31.30;39.74
12051;BME280;6086;43.546;26.474;2022-09-09T13:16:20;99036.09;;;31.41;40.23
12051;BME280;6086;43.546;26.474;2022-09-09T13:18:49;99036.50;;;31.31;39.25
12051;BME280;6086;43.546;26.474;2022-09-09T13:21:18;99037.66;;;31.30;40.35
12051;BME280;6086;43.546;26.474;2022-09-09T13:23:51;99036.97;;;31.33;39.54
12051;BME280;6086;43.546;26.474;2022-09-09T13:26:22;99028.81;;;31.36;39.25
12051;BME280;6086;43.546;26.474;2022-09-09T13:28:51;99020.25;;;31.29;39.74
12051;BME280;6086;43.546;26.474;2022-09-09T13:31:23;99013.22;;;31.32;39.62
12051;BME280;6086;43.546;26.474;2022-09-09T13:33:53;99018.56;;;31.37;39.36
12051;BME280;6086;43.546;26.474;2022-09-09T13:36:29;99017.66;;;31.45;39.20